sensor_id;sensor_type;location;lat;lon;timestamp;temperature;humidity
64012;DHT22;50211;52.768;12.124;2022-08-11T00:01:36;17.90;99.90
64012;DHT22;50211;52.768;12.124;2022-08-11T00:04:03;17.90;99.90
64012;DHT22;50211;52.768;12.124;2022-08-11T00:06:35;17.80;99.90
64012;DHT22;50211;52.768;12.124;2022-08-11T00:09:03;17.80;99.90
64012;DHT22;50211;52.768;12.124;2022-08-11T00:11:40;17.80;99.90
64012;DHT22;50211;52.768;12.124;2022-08-11T00:14:33;17.70;99.90
64012;DHT22;50211;52.768;12.124;2022-08-11T00:17:05;17.70;99.90
64012;DHT22;50211;52.768;12.124;2022-08-11T00:19:34;17.70;99.90
64012;DHT22;50211;52.768;12.124;2022-08-11T00:22:02;17.70;99.90
64012;DHT22;50211;52.768;12.124;2022-08-11T00:24:36;17.60;99.90
64012;DHT22;50211;52.768;12.124;2022-08-11T00:27:03;17.60;99.90
64012;DHT22;50211;52.768;12.124;2022-08-11T00:29:29;17.60;99.90
64012;DHT22;50211;52.768;12.124;2022-08-11T00:31:56;17.50;99.90
64012;DHT22;50211;52.768;12.124;2022-08-11T00:34:29;17.50;99.90
64012;DHT22;50211;52.768;12.124;2022-08-11T00:37:00;17.40;99.90
64012;DHT22;50211;52.768;12.124;2022-08-11T00:39:26;17.40;99.90
64012;DHT22;50211;52.768;12.124;2022-08-11T00:50:26;17.30;99.90
64012;DHT22;50211;52.768;12.124;2022-08-11T00:53:32;17.30;99.90
64012;DHT22;50211;52.768;12.124;2022-08-11T00:56:13;17.30;99.90
64012;DHT22;50211;52.768;12.124;2022-08-11T00:59:20;17.30;99.90
64012;DHT22;50211;52.768;12.124;2022-08-11T01:02:16;17.30;99.90
64012;DHT22;50211;52.768;12.124;2022-08-11T01:07:56;17.10;99.90
64012;DHT22;50211;52.768;12.124;2022-08-11T01:13:53;17.10;99.90
64012;DHT22;50211;52.768;12.124;2022-08-11T01:31:48;16.90;99.90
64012;DHT22;50211;52.768;12.124;2022-08-11T01:40:31;16.80;99.90
64012;DHT22;50211;52.768;12.124;2022-08-11T01:46:32;16.70;99.90
64012;DHT22;50211;52.768;12.124;2022-08-11T01:49:09;16.70;99.90
64012;DHT22;50211;52.768;12.124;2022-08-11T01:51:57;16.60;99.90
64012;DHT22;50211;52.768;12.124;2022-08-11T01:54:43;16.60;99.90
64012;DHT22;50211;52.768;12.124;2022-08-11T01:57:33;16.60;99.90
64012;DHT22;50211;52.768;12.124;2022-08-11T02:00:09;16.60;99.90
64012;DHT22;50211;52.768;12.124;2022-08-11T02:03:00;16.50;99.90
64012;DHT22;50211;52.768;12.124;2022-08-11T02:06:18;16.50;99.90
64012;DHT22;50211;52.768;12.124;2022-08-11T02:11:59;16.50;99.90
64012;DHT22;50211;52.768;12.124;2022-08-11T02:14:33;16.50;99.90
64012;DHT22;50211;52.768;12.124;2022-08-11T02:17:18;16.40;99.90
64012;DHT22;50211;52.768;12.124;2022-08-11T02:20:01;16.30;99.90
64012;DHT22;50211;52.768;12.124;2022-08-11T02:23:08;16.30;99.90
64012;DHT22;50211;52.768;12.124;2022-08-11T02:26:08;16.30;99.90
64012;DHT22;50211;52.768;12.124;2022-08-11T02:28:54;16.30;99.90
64012;DHT22;50211;52.768;12.124;2022-08-11T02:34:34;16.20;99.90
64012;DHT22;50211;52.768;12.124;2022-08-11T02:37:20;16.20;99.90
64012;DHT22;50211;52.768;12.124;2022-08-11T02:47:58;15.90;99.90
64012;DHT22;50211;52.768;12.124;2022-08-11T02:51:55;16.00;99.90
64012;DHT22;50211;52.768;12.124;2022-08-11T02:57:01;16.00;99.90
64012;DHT22;50211;52.768;12.124;2022-08-11T02:59:46;15.90;99.90
64012;DHT22;50211;52.768;12.124;2022-08-11T03:05:43;15.80;99.90
64012;DHT22;50211;52.768;12.124;2022-08-11T03:13:23;15.70;99.90
64012;DHT22;50211;52.768;12.124;2022-08-11T03:16:28;15.70;99.90
64012;DHT22;50211;52.768;12.124;2022-08-11T03:19:33;15.70;99.90
64012;DHT22;50211;52.768;12.124;2022-08-11T03:27:52;15.70;99.90
64012;DHT22;50211;52.768;12.124;2022-08-11T03:33:25;15.60;99.90
64012;DHT22;50211;52.768;12.124;2022-08-11T03:36:18;15.60;99.90
64012;DHT22;50211;52.768;12.124;2022-08-11T04:07:41;15.50;99.90
64012;DHT22;50211;52.768;12.124;2022-08-11T04:16:43;15.50;99.90
64012;DHT22;50211;52.768;12.124;2022-08-11T04:36:25;15.50;99.90
64012;DHT22;50211;52.768;12.124;2022-08-11T04:51:40;15.60;99.90
64012;DHT22;50211;52.768;12.124;2022-08-11T05:00:38;15.90;99.90
64012;DHT22;50211;52.768;12.124;2022-08-11T05:03:42;15.90;99.90
64012;DHT22;50211;52.768;12.124;2022-08-11T05:08:49;16.00;99.90
64012;DHT22;50211;52.768;12.124;2022-08-11T05:14:48;16.10;99.90
64012;DHT22;50211;52.768;12.124;2022-08-11T05:18:04;16.00;99.90
64012;DHT22;50211;52.768;12.124;2022-08-11T05:20:54;16.00;99.90
64012;DHT22;50211;52.768;12.124;2022-08-11T05:23:46;16.00;99.90
64012;DHT22;50211;52.768;12.124;2022-08-11T05:26:41;16.10;99.90
64012;DHT22;50211;52.768;12.124;2022-08-11T05:29:45;16.30;99.90
64012;DHT22;50211;52.768;12.124;2022-08-11T05:32:38;16.40;99.90
64012;DHT22;50211;52.768;12.124;2022-08-11T05:35:28;16.40;99.90
64012;DHT22;50211;52.768;12.124;2022-08-11T05:37:56;16.50;99.90
64012;DHT22;50211;52.768;12.124;2022-08-11T05:40:48;16.50;99.90
64012;DHT22;50211;52.768;12.124;2022-08-11T05:43:34;16.50;99.90
64012;DHT22;50211;52.768;12.124;2022-08-11T05:46:23;16.60;99.90
64012;DHT22;50211;52.768;12.124;2022-08-11T05:49:08;16.70;99.90
64012;DHT22;50211;52.768;12.124;2022-08-11T05:51:53;16.90;99.90
64012;DHT22;50211;52.768;12.124;2022-08-11T05:54:39;17.00;99.90
64012;DHT22;50211;52.768;12.124;2022-08-11T05:57:28;17.20;99.90
64012;DHT22;50211;52.768;12.124;2022-08-11T06:00:06;17.30;99.90
64012;DHT22;50211;52.768;12.124;2022-08-11T06:02:42;17.50;99.90
64012;DHT22;50211;52.768;12.124;2022-08-11T06:05:09;17.60;99.90
64012;DHT22;50211;52.768;12.124;2022-08-11T06:07:35;17.70;99.90
64012;DHT22;50211;52.768;12.124;2022-08-11T06:10:01;17.80;99.90
64012;DHT22;50211;52.768;12.124;2022-08-11T06:12:29;17.90;99.90
64012;DHT22;50211;52.768;12.124;2022-08-11T06:15:01;18.00;99.90
64012;DHT22;50211;52.768;12.124;2022-08-11T06:17:29;18.10;99.90
64012;DHT22;50211;52.768;12.124;2022-08-11T06:20:06;18.20;99.90
64012;DHT22;50211;52.768;12.124;2022-08-11T06:22:36;18.30;99.90
64012;DHT22;50211;52.768;12.124;2022-08-11T06:25:03;18.40;99.90
64012;DHT22;50211;52.768;12.124;2022-08-11T06:27:32;18.50;99.90
64012;DHT22;50211;52.768;12.124;2022-08-11T06:29:58;18.70;99.90
64012;DHT22;50211;52.768;12.124;2022-08-11T06:32:31;18.80;99.90
64012;DHT22;50211;52.768;12.124;2022-08-11T06:35:06;18.90;99.90
64012;DHT22;50211;52.768;12.124;2022-08-11T06:40:50;19.00;99.90
64012;DHT22;50211;52.768;12.124;2022-08-11T06:43:53;19.10;99.90
64012;DHT22;50211;52.768;12.124;2022-08-11T06:46:31;19.20;99.90
64012;DHT22;50211;52.768;12.124;2022-08-11T06:49:00;19.40;99.90
64012;DHT22;50211;52.768;12.124;2022-08-11T06:51:26;19.50;99.90
64012;DHT22;50211;52.768;12.124;2022-08-11T06:53:55;19.70;99.90
64012;DHT22;50211;52.768;12.124;2022-08-11T06:56:30;19.70;99.90
64012;DHT22;50211;52.768;12.124;2022-08-11T06:59:16;19.90;99.90
64012;DHT22;50211;52.768;12.124;2022-08-11T07:07:17;20.40;99.90
64012;DHT22;50211;52.768;12.124;2022-08-11T07:13:12;20.70;99.90
64012;DHT22;50211;52.768;12.124;2022-08-11T07:15:58;20.80;99.90
64012;DHT22;50211;52.768;12.124;2022-08-11T07:18:29;21.00;99.90
64012;DHT22;50211;52.768;12.124;2022-08-11T07:24:12;21.20;99.90
64012;DHT22;50211;52.768;12.124;2022-08-11T07:26:58;21.40;99.90
64012;DHT22;50211;52.768;12.124;2022-08-11T07:29:45;21.50;99.90
64012;DHT22;50211;52.768;12.124;2022-08-11T07:32:29;21.70;99.90
64012;DHT22;50211;52.768;12.124;2022-08-11T07:35:10;21.90;99.90
64012;DHT22;50211;52.768;12.124;2022-08-11T07:37:46;22.10;99.90
64012;DHT22;50211;52.768;12.124;2022-08-11T07:40:13;22.30;99.90
64012;DHT22;50211;52.768;12.124;2022-08-11T07:42:40;22.50;99.90
64012;DHT22;50211;52.768;12.124;2022-08-11T07:45:11;22.70;99.90
64012;DHT22;50211;52.768;12.124;2022-08-11T07:47:56;22.90;99.90
64012;DHT22;50211;52.768;12.124;2022-08-11T07:50:42;23.20;99.90
64012;DHT22;50211;52.768;12.124;2022-08-11T07:53:28;23.50;99.90
64012;DHT22;50211;52.768;12.124;2022-08-11T07:55:57;23.90;99.90
64012;DHT22;50211;52.768;12.124;2022-08-11T07:58:24;24.00;99.90
64012;DHT22;50211;52.768;12.124;2022-08-11T08:01:10;24.30;99.90
64012;DHT22;50211;52.768;12.124;2022-08-11T08:03:57;24.60;99.90
64012;DHT22;50211;52.768;12.124;2022-08-11T08:06:41;24.80;99.90
64012;DHT22;50211;52.768;12.124;2022-08-11T08:09:26;25.00;99.90
64012;DHT22;50211;52.768;12.124;2022-08-11T08:12:11;25.10;99.90
64012;DHT22;50211;52.768;12.124;2022-08-11T08:14:57;25.30;99.90
64012;DHT22;50211;52.768;12.124;2022-08-11T08:17:43;25.40;99.90
64012;DHT22;50211;52.768;12.124;2022-08-11T08:20:24;25.60;99.90
64012;DHT22;50211;52.768;12.124;2022-08-11T08:22:58;25.80;99.90
64012;DHT22;50211;52.768;12.124;2022-08-11T08:25:26;26.20;99.90
64012;DHT22;50211;52.768;12.124;2022-08-11T08:27:53;25.90;99.90
64012;DHT22;50211;52.768;12.124;2022-08-11T08:30:19;26.20;99.90
64012;DHT22;50211;52.768;12.124;2022-08-11T08:33:03;26.40;99.90
64012;DHT22;50211;52.768;12.124;2022-08-11T08:35:29;26.70;99.90
64012;DHT22;50211;52.768;12.124;2022-08-11T08:37:56;27.00;99.90
64012;DHT22;50211;52.768;12.124;2022-08-11T08:40:24;27.10;99.90
64012;DHT22;50211;52.768;12.124;2022-08-11T08:42:55;27.30;99.90
64012;DHT22;50211;52.768;12.124;2022-08-11T08:45:21;27.50;99.90
64012;DHT22;50211;52.768;12.124;2022-08-11T08:47:59;27.60;99.90
64012;DHT22;50211;52.768;12.124;2022-08-11T08:50:30;27.80;99.00
64012;DHT22;50211;52.768;12.124;2022-08-11T08:53:20;27.70;99.50
64012;DHT22;50211;52.768;12.124;2022-08-11T08:55:47;27.70;99.40
64012;DHT22;50211;52.768;12.124;2022-08-11T08:58:15;27.90;99.30
64012;DHT22;50211;52.768;12.124;2022-08-11T09:00:44;27.90;98.40
64012;DHT22;50211;52.768;12.124;2022-08-11T09:03:12;28.00;97.70
64012;DHT22;50211;52.768;12.124;2022-08-11T09:05:38;28.30;97.60
64012;DHT22;50211;52.768;12.124;2022-08-11T09:08:05;28.30;97.60
64012;DHT22;50211;52.768;12.124;2022-08-11T09:10:31;28.60;96.40
64012;DHT22;50211;52.768;12.124;2022-08-11T09:12:58;28.70;96.00
64012;DHT22;50211;52.768;12.124;2022-08-11T09:15:24;28.60;95.90
64012;DHT22;50211;52.768;12.124;2022-08-11T09:17:55;28.80;95.70
64012;DHT22;50211;52.768;12.124;2022-08-11T09:20:26;29.10;95.30
64012;DHT22;50211;52.768;12.124;2022-08-11T09:22:58;29.10;94.80
64012;DHT22;50211;52.768;12.124;2022-08-11T09:25:44;29.20;94.10
64012;DHT22;50211;52.768;12.124;2022-08-11T09:28:28;29.40;94.20
64012;DHT22;50211;52.768;12.124;2022-08-11T09:30:56;29.70;94.10
64012;DHT22;50211;52.768;12.124;2022-08-11T09:33:23;29.80;93.00
64012;DHT22;50211;52.768;12.124;2022-08-11T09:35:50;29.90;92.00
64012;DHT22;50211;52.768;12.124;2022-08-11T09:38:18;30.00;92.60
64012;DHT22;50211;52.768;12.124;2022-08-11T09:41:06;30.20;92.70
64012;DHT22;50211;52.768;12.124;2022-08-11T09:43:34;30.20;91.40
64012;DHT22;50211;52.768;12.124;2022-08-11T09:46:23;30.50;89.70
64012;DHT22;50211;52.768;12.124;2022-08-11T09:48:51;30.00;86.50
64012;DHT22;50211;52.768;12.124;2022-08-11T09:51:20;29.70;87.10
64012;DHT22;50211;52.768;12.124;2022-08-11T09:53:46;30.10;88.30
64012;DHT22;50211;52.768;12.124;2022-08-11T09:56:18;30.30;86.10
64012;DHT22;50211;52.768;12.124;2022-08-11T09:59:04;30.40;85.20
64012;DHT22;50211;52.768;12.124;2022-08-11T10:01:34;30.50;84.20
64012;DHT22;50211;52.768;12.124;2022-08-11T10:04:10;30.60;83.40
64012;DHT22;50211;52.768;12.124;2022-08-11T10:06:38;30.60;83.50
64012;DHT22;50211;52.768;12.124;2022-08-11T10:09:23;30.70;82.50
64012;DHT22;50211;52.768;12.124;2022-08-11T10:11:52;30.70;80.90
64012;DHT22;50211;52.768;12.124;2022-08-11T10:14:18;31.10;83.70
64012;DHT22;50211;52.768;12.124;2022-08-11T10:17:06;31.10;81.30
64012;DHT22;50211;52.768;12.124;2022-08-11T10:19:33;30.90;81.70
64012;DHT22;50211;52.768;12.124;2022-08-11T10:22:01;31.00;83.00
64012;DHT22;50211;52.768;12.124;2022-08-11T10:24:45;30.90;83.70
64012;DHT22;50211;52.768;12.124;2022-08-11T10:27:29;31.00;79.30
64012;DHT22;50211;52.768;12.124;2022-08-11T10:29:56;31.30;82.20
64012;DHT22;50211;52.768;12.124;2022-08-11T10:32:42;31.60;78.70
64012;DHT22;50211;52.768;12.124;2022-08-11T10:35:30;31.80;79.60
64012;DHT22;50211;52.768;12.124;2022-08-11T10:37:57;32.20;78.40
64012;DHT22;50211;52.768;12.124;2022-08-11T10:40:23;32.40;76.10
64012;DHT22;50211;52.768;12.124;2022-08-11T10:42:57;32.50;76.90
64012;DHT22;50211;52.768;12.124;2022-08-11T10:45:36;32.60;77.00
64012;DHT22;50211;52.768;12.124;2022-08-11T10:48:24;32.60;74.70
64012;DHT22;50211;52.768;12.124;2022-08-11T10:50:50;32.20;72.70
64012;DHT22;50211;52.768;12.124;2022-08-11T10:53:35;32.10;73.00
64012;DHT22;50211;52.768;12.124;2022-08-11T10:56:21;32.60;72.30
64012;DHT22;50211;52.768;12.124;2022-08-11T10:59:07;32.70;70.10
64012;DHT22;50211;52.768;12.124;2022-08-11T11:01:37;32.50;71.70
64012;DHT22;50211;52.768;12.124;2022-08-11T11:04:12;32.70;72.10
64012;DHT22;50211;52.768;12.124;2022-08-11T11:07:05;32.70;71.10
64012;DHT22;50211;52.768;12.124;2022-08-11T11:09:40;32.40;69.60
64012;DHT22;50211;52.768;12.124;2022-08-11T11:12:12;32.20;69.40
64012;DHT22;50211;52.768;12.124;2022-08-11T11:15:01;32.30;68.10
64012;DHT22;50211;52.768;12.124;2022-08-11T11:17:52;32.20;67.90
64012;DHT22;50211;52.768;12.124;2022-08-11T11:20:24;32.20;67.50
64012;DHT22;50211;52.768;12.124;2022-08-11T11:22:55;32.00;67.90
64012;DHT22;50211;52.768;12.124;2022-08-11T11:28:21;32.70;67.40
64012;DHT22;50211;52.768;12.124;2022-08-11T11:33:39;32.70;65.60
64012;DHT22;50211;52.768;12.124;2022-08-11T11:36:14;32.70;69.00
64012;DHT22;50211;52.768;12.124;2022-08-11T11:38:47;32.60;65.40
64012;DHT22;50211;52.768;12.124;2022-08-11T11:41:12;32.70;63.20
64012;DHT22;50211;52.768;12.124;2022-08-11T11:43:53;32.70;64.60
64012;DHT22;50211;52.768;12.124;2022-08-11T11:46:19;32.60;64.80
64012;DHT22;50211;52.768;12.124;2022-08-11T11:48:45;32.40;64.90
64012;DHT22;50211;52.768;12.124;2022-08-11T11:51:11;32.40;64.80
64012;DHT22;50211;52.768;12.124;2022-08-11T11:53:41;32.10;65.60
64012;DHT22;50211;52.768;12.124;2022-08-11T11:56:07;32.30;63.20
64012;DHT22;50211;52.768;12.124;2022-08-11T11:58:33;32.50;66.60
64012;DHT22;50211;52.768;12.124;2022-08-11T12:01:18;32.70;66.10
64012;DHT22;50211;52.768;12.124;2022-08-11T12:03:48;32.70;64.20
64012;DHT22;50211;52.768;12.124;2022-08-11T12:06:16;32.70;65.50
64012;DHT22;50211;52.768;12.124;2022-08-11T12:08:43;32.90;65.20
64012;DHT22;50211;52.768;12.124;2022-08-11T12:11:12;33.10;67.00
64012;DHT22;50211;52.768;12.124;2022-08-11T12:14:02;33.10;63.50
64012;DHT22;50211;52.768;12.124;2022-08-11T12:16:29;32.60;64.30
64012;DHT22;50211;52.768;12.124;2022-08-11T12:43:32;33.10;62.70
64012;DHT22;50211;52.768;12.124;2022-08-11T12:46:34;33.30;64.60
64012;DHT22;50211;52.768;12.124;2022-08-11T12:49:12;33.50;63.20
64012;DHT22;50211;52.768;12.124;2022-08-11T12:52:01;33.60;61.20
64012;DHT22;50211;52.768;12.124;2022-08-11T12:54:33;33.50;61.20
64012;DHT22;50211;52.768;12.124;2022-08-11T12:57:02;33.60;60.10
64012;DHT22;50211;52.768;12.124;2022-08-11T12:59:48;33.10;60.10
64012;DHT22;50211;52.768;12.124;2022-08-11T13:02:33;33.50;61.50
64012;DHT22;50211;52.768;12.124;2022-08-11T13:05:18;33.80;60.80
64012;DHT22;50211;52.768;12.124;2022-08-11T13:07:44;34.00;58.30
64012;DHT22;50211;52.768;12.124;2022-08-11T13:10:13;34.10;56.30
64012;DHT22;50211;52.768;12.124;2022-08-11T13:12:40;34.30;58.30
64012;DHT22;50211;52.768;12.124;2022-08-11T13:15:21;34.10;57.10
64012;DHT22;50211;52.768;12.124;2022-08-11T13:17:50;33.80;57.80
64012;DHT22;50211;52.768;12.124;2022-08-11T13:20:21;33.70;57.70
64012;DHT22;50211;52.768;12.124;2022-08-11T13:22:52;34.20;57.90
64012;DHT22;50211;52.768;12.124;2022-08-11T13:25:21;34.50;57.40
64012;DHT22;50211;52.768;12.124;2022-08-11T13:27:48;34.50;57.00
64012;DHT22;50211;52.768;12.124;2022-08-11T13:30:16;34.30;57.40
64012;DHT22;50211;52.768;12.124;2022-08-11T13:33:01;34.00;57.00
64012;DHT22;50211;52.768;12.124;2022-08-11T13:35:28;34.00;55.90
64012;DHT22;50211;52.768;12.124;2022-08-11T13:37:54;33.90;56.40
64012;DHT22;50211;52.768;12.124;2022-08-11T13:40:21;33.60;56.90
64012;DHT22;50211;52.768;12.124;2022-08-11T13:42:48;33.60;55.60
64012;DHT22;50211;52.768;12.124;2022-08-11T13:45:14;33.90;56.70
64012;DHT22;50211;52.768;12.124;2022-08-11T13:47:40;33.80;57.30
64012;DHT22;50211;52.768;12.124;2022-08-11T13:50:07;33.60;56.70
64012;DHT22;50211;52.768;12.124;2022-08-11T13:52:35;33.50;56.30
64012;DHT22;50211;52.768;12.124;2022-08-11T13:55:05;33.80;56.40
64012;DHT22;50211;52.768;12.124;2022-08-11T13:57:32;33.50;55.90
64012;DHT22;50211;52.768;12.124;2022-08-11T13:59:58;33.70;55.80
64012;DHT22;50211;52.768;12.124;2022-08-11T14:02:37;34.00;55.60
64012;DHT22;50211;52.768;12.124;2022-08-11T14:05:07;34.30;56.20
64012;DHT22;50211;52.768;12.124;2022-08-11T14:07:37;34.40;54.20
64012;DHT22;50211;52.768;12.124;2022-08-11T14:10:05;34.40;54.20
64012;DHT22;50211;52.768;12.124;2022-08-11T14:12:36;34.30;54.10
64012;DHT22;50211;52.768;12.124;2022-08-11T14:15:31;34.30;53.60
64012;DHT22;50211;52.768;12.124;2022-08-11T14:18:04;34.20;54.10
64012;DHT22;50211;52.768;12.124;2022-08-11T14:20:32;34.30;54.40
64012;DHT22;50211;52.768;12.124;2022-08-11T14:23:19;34.40;54.40
64012;DHT22;50211;52.768;12.124;2022-08-11T14:25:48;33.80;54.40
64012;DHT22;50211;52.768;12.124;2022-08-11T14:28:33;34.30;53.50
64012;DHT22;50211;52.768;12.124;2022-08-11T14:31:00;34.30;54.00
64012;DHT22;50211;52.768;12.124;2022-08-11T14:33:27;34.60;53.60
64012;DHT22;50211;52.768;12.124;2022-08-11T14:35:53;34.90;53.40
64012;DHT22;50211;52.768;12.124;2022-08-11T14:38:19;34.90;54.70
64012;DHT22;50211;52.768;12.124;2022-08-11T14:40:46;34.90;53.30
64012;DHT22;50211;52.768;12.124;2022-08-11T14:43:31;35.20;52.70
64012;DHT22;50211;52.768;12.124;2022-08-11T14:46:16;34.60;54.40
64012;DHT22;50211;52.768;12.124;2022-08-11T14:49:00;34.00;53.50
64012;DHT22;50211;52.768;12.124;2022-08-11T14:51:27;33.70;54.40
64012;DHT22;50211;52.768;12.124;2022-08-11T14:53:52;33.90;54.50
64012;DHT22;50211;52.768;12.124;2022-08-11T14:56:38;34.00;54.00
64012;DHT22;50211;52.768;12.124;2022-08-11T14:59:05;34.40;53.50
64012;DHT22;50211;52.768;12.124;2022-08-11T15:01:30;34.50;54.20
64012;DHT22;50211;52.768;12.124;2022-08-11T15:04:15;34.30;54.10
64012;DHT22;50211;52.768;12.124;2022-08-11T15:06:41;34.00;53.50
64012;DHT22;50211;52.768;12.124;2022-08-11T15:09:07;34.00;53.90
64012;DHT22;50211;52.768;12.124;2022-08-11T15:11:33;33.80;53.80
64012;DHT22;50211;52.768;12.124;2022-08-11T15:14:18;34.00;54.00
64012;DHT22;50211;52.768;12.124;2022-08-11T15:17:05;33.50;54.20
64012;DHT22;50211;52.768;12.124;2022-08-11T15:19:36;32.80;54.70
64012;DHT22;50211;52.768;12.124;2022-08-11T15:22:23;32.40;55.80
64012;DHT22;50211;52.768;12.124;2022-08-11T15:25:07;32.20;55.80
64012;DHT22;50211;52.768;12.124;2022-08-11T15:27:34;32.20;55.80
64012;DHT22;50211;52.768;12.124;2022-08-11T15:30:18;31.80;55.60
64012;DHT22;50211;52.768;12.124;2022-08-11T15:33:07;31.50;56.50
64012;DHT22;50211;52.768;12.124;2022-08-11T15:35:53;31.00;56.60
64012;DHT22;50211;52.768;12.124;2022-08-11T15:38:48;31.00;57.30
64012;DHT22;50211;52.768;12.124;2022-08-11T15:41:16;30.80;57.30
64012;DHT22;50211;52.768;12.124;2022-08-11T15:44:05;30.70;57.70
64012;DHT22;50211;52.768;12.124;2022-08-11T15:47:02;30.60;57.90
64012;DHT22;50211;52.768;12.124;2022-08-11T15:49:33;30.40;58.60
64012;DHT22;50211;52.768;12.124;2022-08-11T15:52:16;30.30;58.40
64012;DHT22;50211;52.768;12.124;2022-08-11T15:54:43;30.20;59.50
64012;DHT22;50211;52.768;12.124;2022-08-11T15:57:14;30.20;59.10
64012;DHT22;50211;52.768;12.124;2022-08-11T16:00:05;30.10;58.60
64012;DHT22;50211;52.768;12.124;2022-08-11T16:02:50;29.90;58.80
64012;DHT22;50211;52.768;12.124;2022-08-11T16:05:20;29.80;59.30
64012;DHT22;50211;52.768;12.124;2022-08-11T16:07:47;29.90;59.20
64012;DHT22;50211;52.768;12.124;2022-08-11T16:10:16;29.90;58.80
64012;DHT22;50211;52.768;12.124;2022-08-11T16:12:56;30.00;59.20
64012;DHT22;50211;52.768;12.124;2022-08-11T16:15:36;30.00;59.20
64012;DHT22;50211;52.768;12.124;2022-08-11T16:18:24;30.00;58.90
64012;DHT22;50211;52.768;12.124;2022-08-11T16:21:07;30.00;59.50
64012;DHT22;50211;52.768;12.124;2022-08-11T16:23:35;30.10;59.60
64012;DHT22;50211;52.768;12.124;2022-08-11T16:26:02;30.20;59.00
64012;DHT22;50211;52.768;12.124;2022-08-11T16:28:31;30.20;59.00
64012;DHT22;50211;52.768;12.124;2022-08-11T16:30:58;30.50;59.10
64012;DHT22;50211;52.768;12.124;2022-08-11T16:33:25;30.60;58.50
64012;DHT22;50211;52.768;12.124;2022-08-11T16:35:51;30.60;58.00
64012;DHT22;50211;52.768;12.124;2022-08-11T16:38:36;30.60;57.90
64012;DHT22;50211;52.768;12.124;2022-08-11T16:41:09;30.60;58.20
64012;DHT22;50211;52.768;12.124;2022-08-11T16:43:40;30.70;58.70
64012;DHT22;50211;52.768;12.124;2022-08-11T16:46:25;30.60;58.30
64012;DHT22;50211;52.768;12.124;2022-08-11T16:49:14;30.60;58.30
64012;DHT22;50211;52.768;12.124;2022-08-11T16:51:41;30.50;58.30
64012;DHT22;50211;52.768;12.124;2022-08-11T16:54:07;30.40;58.60
64012;DHT22;50211;52.768;12.124;2022-08-11T16:56:52;30.40;58.50
64012;DHT22;50211;52.768;12.124;2022-08-11T16:59:30;30.40;58.20
64012;DHT22;50211;52.768;12.124;2022-08-11T17:02:06;30.40;58.20
64012;DHT22;50211;52.768;12.124;2022-08-11T17:04:45;30.40;58.20
64012;DHT22;50211;52.768;12.124;2022-08-11T17:07:30;30.50;58.90
64012;DHT22;50211;52.768;12.124;2022-08-11T17:10:18;30.40;58.80
64012;DHT22;50211;52.768;12.124;2022-08-11T17:13:05;30.10;58.60
64012;DHT22;50211;52.768;12.124;2022-08-11T17:15:55;30.10;59.10
64012;DHT22;50211;52.768;12.124;2022-08-11T17:18:35;30.10;59.30
64012;DHT22;50211;52.768;12.124;2022-08-11T17:21:05;30.10;59.40
64012;DHT22;50211;52.768;12.124;2022-08-11T17:23:34;30.10;59.00
64012;DHT22;50211;52.768;12.124;2022-08-11T17:26:21;29.90;59.40
64012;DHT22;50211;52.768;12.124;2022-08-11T17:28:56;29.70;59.80
64012;DHT22;50211;52.768;12.124;2022-08-11T17:31:25;29.50;60.10
64012;DHT22;50211;52.768;12.124;2022-08-11T17:34:10;29.50;61.10
64012;DHT22;50211;52.768;12.124;2022-08-11T17:36:57;29.30;60.90
64012;DHT22;50211;52.768;12.124;2022-08-11T17:39:26;29.30;61.50
64012;DHT22;50211;52.768;12.124;2022-08-11T17:41:53;29.30;62.40
64012;DHT22;50211;52.768;12.124;2022-08-11T17:44:39;29.10;61.30
64012;DHT22;50211;52.768;12.124;2022-08-11T17:47:25;29.00;62.60
64012;DHT22;50211;52.768;12.124;2022-08-11T17:50:11;28.80;63.30
64012;DHT22;50211;52.768;12.124;2022-08-11T17:52:38;28.70;63.00
64012;DHT22;50211;52.768;12.124;2022-08-11T17:55:24;28.60;63.50
64012;DHT22;50211;52.768;12.124;2022-08-11T17:58:08;28.40;64.30
64012;DHT22;50211;52.768;12.124;2022-08-11T18:00:53;28.30;65.40
64012;DHT22;50211;52.768;12.124;2022-08-11T18:03:20;28.20;65.60
64012;DHT22;50211;52.768;12.124;2022-08-11T18:05:59;28.10;65.70
64012;DHT22;50211;52.768;12.124;2022-08-11T18:08:28;28.00;66.70
64012;DHT22;50211;52.768;12.124;2022-08-11T18:11:14;27.90;69.90
64012;DHT22;50211;52.768;12.124;2022-08-11T18:14:01;27.70;71.60
64012;DHT22;50211;52.768;12.124;2022-08-11T18:16:46;27.50;73.30
64012;DHT22;50211;52.768;12.124;2022-08-11T18:19:31;27.20;74.30
64012;DHT22;50211;52.768;12.124;2022-08-11T18:22:27;26.90;75.20
64012;DHT22;50211;52.768;12.124;2022-08-11T18:25:21;26.60;76.50
64012;DHT22;50211;52.768;12.124;2022-08-11T18:28:08;26.40;78.10
64012;DHT22;50211;52.768;12.124;2022-08-11T18:30:56;26.20;79.70
64012;DHT22;50211;52.768;12.124;2022-08-11T18:33:43;26.00;80.70
64012;DHT22;50211;52.768;12.124;2022-08-11T18:36:35;25.90;81.40
64012;DHT22;50211;52.768;12.124;2022-08-11T18:39:22;25.70;82.00
64012;DHT22;50211;52.768;12.124;2022-08-11T18:42:13;25.50;82.00
64012;DHT22;50211;52.768;12.124;2022-08-11T18:45:03;25.40;81.90
64012;DHT22;50211;52.768;12.124;2022-08-11T18:47:50;25.30;81.70
64012;DHT22;50211;52.768;12.124;2022-08-11T18:50:35;25.30;81.90
64012;DHT22;50211;52.768;12.124;2022-08-11T18:53:20;25.20;82.00
64012;DHT22;50211;52.768;12.124;2022-08-11T18:56:05;25.20;82.60
64012;DHT22;50211;52.768;12.124;2022-08-11T18:58:50;25.00;83.30
64012;DHT22;50211;52.768;12.124;2022-08-11T19:01:35;24.90;82.60
64012;DHT22;50211;52.768;12.124;2022-08-11T19:04:21;24.80;82.90
64012;DHT22;50211;52.768;12.124;2022-08-11T19:07:07;24.70;83.10
64012;DHT22;50211;52.768;12.124;2022-08-11T19:09:53;24.60;82.50
64012;DHT22;50211;52.768;12.124;2022-08-11T19:12:40;24.60;81.90
64012;DHT22;50211;52.768;12.124;2022-08-11T19:15:25;24.50;82.10
64012;DHT22;50211;52.768;12.124;2022-08-11T19:18:14;24.30;82.20
64012;DHT22;50211;52.768;12.124;2022-08-11T19:21:00;24.20;81.90
64012;DHT22;50211;52.768;12.124;2022-08-11T19:23:49;24.10;83.10
64012;DHT22;50211;52.768;12.124;2022-08-11T19:26:34;23.90;83.60
64012;DHT22;50211;52.768;12.124;2022-08-11T19:29:19;23.80;84.10
64012;DHT22;50211;52.768;12.124;2022-08-11T19:32:05;23.80;84.00
64012;DHT22;50211;52.768;12.124;2022-08-11T19:34:50;23.80;83.40
64012;DHT22;50211;52.768;12.124;2022-08-11T19:37:36;23.70;83.60